sensor_id;sensor_type;location;lat;lon;timestamp;P1;durP1;ratioP1;P2;durP2;ratioP2
70707;SDS011;58277;47.316;18.908;2023-01-10T00:01:38;22.67;;;10.65;;
70707;SDS011;58277;47.316;18.908;2023-01-10T00:04:01;22.80;;;10.63;;
70707;SDS011;58277;47.316;18.908;2023-01-10T00:06:24;22.05;;;11.02;;
70707;SDS011;58277;47.316;18.908;2023-01-10T00:08:47;21.73;;;10.32;;
70707;SDS011;58277;47.316;18.908;2023-01-10T00:11:10;24.07;;;10.60;;
70707;SDS011;58277;47.316;18.908;2023-01-10T00:13:54;22.95;;;10.18;;
70707;SDS011;58277;47.316;18.908;2023-01-10T00:16:18;24.63;;;10.60;;
70707;SDS011;58277;47.316;18.908;2023-01-10T00:18:41;23.30;;;10.70;;
70707;SDS011;58277;47.316;18.908;2023-01-10T00:21:03;23.63;;;11.38;;
70707;SDS011;58277;47.316;18.908;2023-01-10T00:23:28;24.77;;;11.30;;
70707;SDS011;58277;47.316;18.908;2023-01-10T00:25:50;27.38;;;12.02;;
70707;SDS011;58277;47.316;18.908;2023-01-10T00:28:13;27.85;;;12.50;;
70707;SDS011;58277;47.316;18.908;2023-01-10T00:30:37;27.63;;;12.48;;
70707;SDS011;58277;47.316;18.908;2023-01-10T00:33:00;23.40;;;10.95;;
70707;SDS011;58277;47.316;18.908;2023-01-10T00:35:25;24.27;;;11.40;;
70707;SDS011;58277;47.316;18.908;2023-01-10T00:37:48;24.50;;;11.02;;
70707;SDS011;58277;47.316;18.908;2023-01-10T00:40:11;22.55;;;10.23;;
70707;SDS011;58277;47.316;18.908;2023-01-10T00:42:35;24.17;;;10.70;;
70707;SDS011;58277;47.316;18.908;2023-01-10T00:45:17;22.00;;;10.68;;
70707;SDS011;58277;47.316;18.908;2023-01-10T00:47:41;21.07;;;9.77;;
70707;SDS011;58277;47.316;18.908;2023-01-10T00:50:04;23.48;;;11.05;;
70707;SDS011;58277;47.316;18.908;2023-01-10T00:52:27;21.77;;;10.93;;
70707;SDS011;58277;47.316;18.908;2023-01-10T00:54:50;21.75;;;10.43;;
70707;SDS011;58277;47.316;18.908;2023-01-10T00:57:13;22.45;;;10.63;;
70707;SDS011;58277;47.316;18.908;2023-01-10T00:59:35;21.47;;;10.27;;
70707;SDS011;58277;47.316;18.908;2023-01-10T01:01:58;22.17;;;9.80;;
70707;SDS011;58277;47.316;18.908;2023-01-10T01:04:21;22.23;;;10.85;;
70707;SDS011;58277;47.316;18.908;2023-01-10T01:06:44;20.63;;;9.82;;
70707;SDS011;58277;47.316;18.908;2023-01-10T01:09:08;19.65;;;9.65;;
70707;SDS011;58277;47.316;18.908;2023-01-10T01:11:31;17.77;;;9.33;;
70707;SDS011;58277;47.316;18.908;2023-01-10T01:13:54;17.60;;;8.90;;
70707;SDS011;58277;47.316;18.908;2023-01-10T01:16:16;16.63;;;8.68;;
70707;SDS011;58277;47.316;18.908;2023-01-10T01:18:39;15.77;;;8.00;;
70707;SDS011;58277;47.316;18.908;2023-01-10T01:21:02;12.48;;;7.20;;
70707;SDS011;58277;47.316;18.908;2023-01-10T01:23:32;14.60;;;7.13;;
70707;SDS011;58277;47.316;18.908;2023-01-10T01:25:56;11.02;;;6.50;;
70707;SDS011;58277;47.316;18.908;2023-01-10T01:28:19;11.30;;;6.55;;
70707;SDS011;58277;47.316;18.908;2023-01-10T01:30:43;9.40;;;5.55;;
70707;SDS011;58277;47.316;18.908;2023-01-10T01:33:05;10.23;;;6.18;;
70707;SDS011;58277;47.316;18.908;2023-01-10T01:35:28;10.30;;;5.30;;
70707;SDS011;58277;47.316;18.908;2023-01-10T01:37:51;9.60;;;5.45;;
70707;SDS011;58277;47.316;18.908;2023-01-10T01:40:14;9.82;;;5.13;;
70707;SDS011;58277;47.316;18.908;2023-01-10T01:42:46;8.02;;;4.80;;
70707;SDS011;58277;47.316;18.908;2023-01-10T01:49:58;6.28;;;3.85;;
70707;SDS011;58277;47.316;18.908;2023-01-10T01:52:22;6.13;;;3.55;;
70707;SDS011;58277;47.316;18.908;2023-01-10T01:54:48;5.65;;;3.20;;
70707;SDS011;58277;47.316;18.908;2023-01-10T01:57:13;5.47;;;3.30;;
70707;SDS011;58277;47.316;18.908;2023-01-10T01:59:40;5.67;;;2.90;;
70707;SDS011;58277;47.316;18.908;2023-01-10T02:02:14;5.43;;;2.90;;
70707;SDS011;58277;47.316;18.908;2023-01-10T02:04:44;4.80;;;2.95;;
70707;SDS011;58277;47.316;18.908;2023-01-10T02:07:09;5.82;;;3.67;;
70707;SDS011;58277;47.316;18.908;2023-01-10T02:09:36;5.05;;;3.30;;
70707;SDS011;58277;47.316;18.908;2023-01-10T02:12:10;4.87;;;2.90;;
70707;SDS011;58277;47.316;18.908;2023-01-10T02:14:35;4.32;;;2.83;;
70707;SDS011;58277;47.316;18.908;2023-01-10T02:16:59;4.78;;;2.88;;
70707;SDS011;58277;47.316;18.908;2023-01-10T02:24:41;5.63;;;2.27;;
70707;SDS011;58277;47.316;18.908;2023-01-10T02:43:22;3.38;;;1.95;;
70707;SDS011;58277;47.316;18.908;2023-01-10T02:45:57;2.92;;;2.00;;
70707;SDS011;58277;47.316;18.908;2023-01-10T02:48:22;4.38;;;2.20;;
70707;SDS011;58277;47.316;18.908;2023-01-10T02:50:49;2.87;;;1.80;;
70707;SDS011;58277;47.316;18.908;2023-01-10T02:53:23;2.63;;;1.65;;
70707;SDS011;58277;47.316;18.908;2023-01-10T03:09:35;2.25;;;1.35;;
70707;SDS011;58277;47.316;18.908;2023-01-10T03:12:13;2.42;;;1.50;;
70707;SDS011;58277;47.316;18.908;2023-01-10T03:14:54;2.55;;;1.50;;
70707;SDS011;58277;47.316;18.908;2023-01-10T03:17:19;2.20;;;1.40;;
70707;SDS011;58277;47.316;18.908;2023-01-10T03:19:45;3.58;;;1.55;;
70707;SDS011;58277;47.316;18.908;2023-01-10T03:22:12;2.50;;;1.40;;
70707;SDS011;58277;47.316;18.908;2023-01-10T03:24:38;2.50;;;1.67;;
70707;SDS011;58277;47.316;18.908;2023-01-10T03:29:47;4.13;;;1.50;;
70707;SDS011;58277;47.316;18.908;2023-01-10T03:32:15;3.10;;;1.80;;
70707;SDS011;58277;47.316;18.908;2023-01-10T03:34:42;2.63;;;1.60;;
70707;SDS011;58277;47.316;18.908;2023-01-10T03:37:11;4.05;;;1.77;;
70707;SDS011;58277;47.316;18.908;2023-01-10T03:44:52;2.95;;;1.60;;
70707;SDS011;58277;47.316;18.908;2023-01-10T03:47:39;3.08;;;1.30;;
70707;SDS011;58277;47.316;18.908;2023-01-10T03:50:19;3.00;;;1.60;;
70707;SDS011;58277;47.316;18.908;2023-01-10T03:52:44;2.05;;;1.48;;
70707;SDS011;58277;47.316;18.908;2023-01-10T03:55:12;2.30;;;1.40;;
70707;SDS011;58277;47.316;18.908;2023-01-10T03:57:42;2.72;;;1.35;;
70707;SDS011;58277;47.316;18.908;2023-01-10T04:00:08;1.77;;;1.40;;
70707;SDS011;58277;47.316;18.908;2023-01-10T04:02:32;1.80;;;1.30;;
70707;SDS011;58277;47.316;18.908;2023-01-10T04:04:54;2.28;;;1.50;;
70707;SDS011;58277;47.316;18.908;2023-01-10T04:07:18;3.00;;;1.47;;
70707;SDS011;58277;47.316;18.908;2023-01-10T04:09:41;2.22;;;1.38;;
70707;SDS011;58277;47.316;18.908;2023-01-10T04:12:03;3.03;;;1.48;;
70707;SDS011;58277;47.316;18.908;2023-01-10T04:14:26;2.30;;;1.30;;
70707;SDS011;58277;47.316;18.908;2023-01-10T04:16:49;2.20;;;1.38;;
70707;SDS011;58277;47.316;18.908;2023-01-10T04:19:12;1.90;;;1.10;;
70707;SDS011;58277;47.316;18.908;2023-01-10T04:21:35;2.80;;;1.55;;
70707;SDS011;58277;47.316;18.908;2023-01-10T04:23:57;2.47;;;1.52;;
70707;SDS011;58277;47.316;18.908;2023-01-10T04:26:20;2.20;;;1.40;;
70707;SDS011;58277;47.316;18.908;2023-01-10T04:28:42;2.40;;;1.60;;
70707;SDS011;58277;47.316;18.908;2023-01-10T04:31:05;2.07;;;1.30;;
70707;SDS011;58277;47.316;18.908;2023-01-10T04:33:28;2.85;;;1.70;;
70707;SDS011;58277;47.316;18.908;2023-01-10T04:35:51;2.53;;;1.50;;
70707;SDS011;58277;47.316;18.908;2023-01-10T04:38:13;3.05;;;1.40;;
70707;SDS011;58277;47.316;18.908;2023-01-10T04:40:37;3.72;;;1.25;;
70707;SDS011;58277;47.316;18.908;2023-01-10T04:42:59;2.40;;;1.40;;
70707;SDS011;58277;47.316;18.908;2023-01-10T04:45:22;2.00;;;1.00;;
70707;SDS011;58277;47.316;18.908;2023-01-10T04:47:48;1.65;;;0.82;;
70707;SDS011;58277;47.316;18.908;2023-01-10T04:50:12;1.52;;;0.93;;
70707;SDS011;58277;47.316;18.908;2023-01-10T04:52:35;1.40;;;0.85;;
70707;SDS011;58277;47.316;18.908;2023-01-10T04:54:57;1.63;;;0.90;;
70707;SDS011;58277;47.316;18.908;2023-01-10T04:57:20;2.90;;;1.10;;
70707;SDS011;58277;47.316;18.908;2023-01-10T04:59:44;2.10;;;0.90;;
70707;SDS011;58277;47.316;18.908;2023-01-10T05:02:07;1.80;;;0.93;;
70707;SDS011;58277;47.316;18.908;2023-01-10T05:04:30;1.58;;;0.73;;
70707;SDS011;58277;47.316;18.908;2023-01-10T05:06:52;1.33;;;0.90;;
70707;SDS011;58277;47.316;18.908;2023-01-10T05:09:15;3.30;;;1.00;;
70707;SDS011;58277;47.316;18.908;2023-01-10T05:11:38;1.70;;;0.90;;
70707;SDS011;58277;47.316;18.908;2023-01-10T05:14:00;1.70;;;1.00;;
70707;SDS011;58277;47.316;18.908;2023-01-10T05:16:23;1.50;;;0.82;;
70707;SDS011;58277;47.316;18.908;2023-01-10T05:18:46;1.63;;;1.03;;
70707;SDS011;58277;47.316;18.908;2023-01-10T05:21:10;2.17;;;1.00;;
70707;SDS011;58277;47.316;18.908;2023-01-10T05:23:34;4.35;;;1.30;;
70707;SDS011;58277;47.316;18.908;2023-01-10T05:26:04;3.28;;;1.30;;
70707;SDS011;58277;47.316;18.908;2023-01-10T05:28:28;2.28;;;1.08;;
70707;SDS011;58277;47.316;18.908;2023-01-10T05:30:51;2.40;;;1.23;;
70707;SDS011;58277;47.316;18.908;2023-01-10T05:33:13;1.90;;;1.20;;
70707;SDS011;58277;47.316;18.908;2023-01-10T05:35:36;2.13;;;1.10;;
70707;SDS011;58277;47.316;18.908;2023-01-10T05:37:59;2.05;;;1.10;;
70707;SDS011;58277;47.316;18.908;2023-01-10T05:40:22;2.72;;;0.90;;
70707;SDS011;58277;47.316;18.908;2023-01-10T05:42:45;2.20;;;1.10;;
70707;SDS011;58277;47.316;18.908;2023-01-10T05:45:07;2.50;;;1.27;;
70707;SDS011;58277;47.316;18.908;2023-01-10T05:47:30;2.92;;;1.00;;
70707;SDS011;58277;47.316;18.908;2023-01-10T05:49:53;3.20;;;1.17;;
70707;SDS011;58277;47.316;18.908;2023-01-10T05:52:15;2.40;;;1.20;;
70707;SDS011;58277;47.316;18.908;2023-01-10T05:54:38;2.27;;;1.10;;
70707;SDS011;58277;47.316;18.908;2023-01-10T05:57:02;2.15;;;1.10;;
70707;SDS011;58277;47.316;18.908;2023-01-10T05:59:25;1.80;;;1.15;;
70707;SDS011;58277;47.316;18.908;2023-01-10T06:01:49;2.88;;;1.30;;
70707;SDS011;58277;47.316;18.908;2023-01-10T06:04:12;2.70;;;1.30;;
70707;SDS011;58277;47.316;18.908;2023-01-10T06:06:35;3.67;;;1.10;;
70707;SDS011;58277;47.316;18.908;2023-01-10T06:08:58;2.50;;;0.93;;
70707;SDS011;58277;47.316;18.908;2023-01-10T06:11:21;2.65;;;1.00;;
70707;SDS011;58277;47.316;18.908;2023-01-10T06:13:50;2.13;;;1.10;;
70707;SDS011;58277;47.316;18.908;2023-01-10T06:16:17;1.90;;;1.00;;
70707;SDS011;58277;47.316;18.908;2023-01-10T06:18:39;3.73;;;0.90;;
70707;SDS011;58277;47.316;18.908;2023-01-10T06:21:02;2.35;;;1.00;;
70707;SDS011;58277;47.316;18.908;2023-01-10T06:23:25;1.85;;;0.80;;
70707;SDS011;58277;47.316;18.908;2023-01-10T06:25:48;1.35;;;0.75;;
70707;SDS011;58277;47.316;18.908;2023-01-10T06:28:13;2.53;;;1.00;;
70707;SDS011;58277;47.316;18.908;2023-01-10T06:30:36;1.77;;;0.90;;
70707;SDS011;58277;47.316;18.908;2023-01-10T06:33:05;2.63;;;1.17;;
70707;SDS011;58277;47.316;18.908;2023-01-10T06:35:30;1.95;;;0.93;;
70707;SDS011;58277;47.316;18.908;2023-01-10T06:37:53;2.30;;;1.05;;
70707;SDS011;58277;47.316;18.908;2023-01-10T06:40:16;3.03;;;1.30;;
70707;SDS011;58277;47.316;18.908;2023-01-10T06:42:39;2.73;;;1.40;;
70707;SDS011;58277;47.316;18.908;2023-01-10T06:45:02;3.05;;;1.17;;
70707;SDS011;58277;47.316;18.908;2023-01-10T06:47:26;2.30;;;1.10;;
70707;SDS011;58277;47.316;18.908;2023-01-10T06:49:49;2.35;;;1.10;;
70707;SDS011;58277;47.316;18.908;2023-01-10T06:52:12;2.75;;;1.50;;
70707;SDS011;58277;47.316;18.908;2023-01-10T06:54:35;2.63;;;1.53;;
70707;SDS011;58277;47.316;18.908;2023-01-10T06:56:58;2.13;;;1.25;;
70707;SDS011;58277;47.316;18.908;2023-01-10T06:59:21;2.78;;;1.38;;
70707;SDS011;58277;47.316;18.908;2023-01-10T07:01:44;2.60;;;1.30;;
70707;SDS011;58277;47.316;18.908;2023-01-10T07:04:07;3.88;;;1.67;;
70707;SDS011;58277;47.316;18.908;2023-01-10T07:06:30;4.23;;;1.77;;
70707;SDS011;58277;47.316;18.908;2023-01-10T07:08:54;3.63;;;1.52;;
70707;SDS011;58277;47.316;18.908;2023-01-10T07:11:17;2.78;;;1.35;;
70707;SDS011;58277;47.316;18.908;2023-01-10T07:13:40;3.13;;;1.23;;
70707;SDS011;58277;47.316;18.908;2023-01-10T07:16:04;3.25;;;1.40;;
70707;SDS011;58277;47.316;18.908;2023-01-10T07:18:33;3.57;;;1.50;;
70707;SDS011;58277;47.316;18.908;2023-01-10T07:20:57;3.35;;;1.70;;
70707;SDS011;58277;47.316;18.908;2023-01-10T07:23:20;3.15;;;1.20;;
70707;SDS011;58277;47.316;18.908;2023-01-10T07:25:43;2.53;;;1.40;;
70707;SDS011;58277;47.316;18.908;2023-01-10T07:28:06;2.05;;;1.10;;
70707;SDS011;58277;47.316;18.908;2023-01-10T07:30:28;2.43;;;0.90;;
70707;SDS011;58277;47.316;18.908;2023-01-10T07:32:55;2.53;;;1.23;;
70707;SDS011;58277;47.316;18.908;2023-01-10T07:35:18;2.17;;;0.90;;
70707;SDS011;58277;47.316;18.908;2023-01-10T07:37:40;1.73;;;1.00;;
70707;SDS011;58277;47.316;18.908;2023-01-10T07:40:04;2.20;;;1.10;;
70707;SDS011;58277;47.316;18.908;2023-01-10T07:42:27;2.40;;;1.00;;
70707;SDS011;58277;47.316;18.908;2023-01-10T07:44:50;2.08;;;0.98;;
70707;SDS011;58277;47.316;18.908;2023-01-10T07:47:13;2.92;;;1.10;;
70707;SDS011;58277;47.316;18.908;2023-01-10T07:49:36;2.92;;;1.20;;
70707;SDS011;58277;47.316;18.908;2023-01-10T07:51:59;1.92;;;0.90;;
70707;SDS011;58277;47.316;18.908;2023-01-10T07:54:22;2.00;;;0.97;;
70707;SDS011;58277;47.316;18.908;2023-01-10T07:56:45;2.47;;;1.00;;
70707;SDS011;58277;47.316;18.908;2023-01-10T07:59:12;1.58;;;0.73;;
70707;SDS011;58277;47.316;18.908;2023-01-10T08:01:35;1.88;;;1.00;;
70707;SDS011;58277;47.316;18.908;2023-01-10T08:03:58;1.90;;;0.90;;
70707;SDS011;58277;47.316;18.908;2023-01-10T08:06:21;1.80;;;0.93;;
70707;SDS011;58277;47.316;18.908;2023-01-10T08:08:43;2.28;;;0.88;;
70707;SDS011;58277;47.316;18.908;2023-01-10T08:11:06;1.98;;;0.60;;
70707;SDS011;58277;47.316;18.908;2023-01-10T08:13:30;1.40;;;0.65;;
70707;SDS011;58277;47.316;18.908;2023-01-10T08:15:54;2.08;;;0.95;;
70707;SDS011;58277;47.316;18.908;2023-01-10T08:18:17;2.80;;;1.13;;
70707;SDS011;58277;47.316;18.908;2023-01-10T08:20:40;1.67;;;1.10;;
70707;SDS011;58277;47.316;18.908;2023-01-10T08:23:03;1.85;;;1.10;;
70707;SDS011;58277;47.316;18.908;2023-01-10T08:25:26;1.77;;;0.90;;
70707;SDS011;58277;47.316;18.908;2023-01-10T08:27:49;1.60;;;1.02;;
70707;SDS011;58277;47.316;18.908;2023-01-10T08:30:12;2.27;;;0.97;;
70707;SDS011;58277;47.316;18.908;2023-01-10T08:32:35;1.25;;;0.70;;
70707;SDS011;58277;47.316;18.908;2023-01-10T08:34:58;1.00;;;0.60;;
70707;SDS011;58277;47.316;18.908;2023-01-10T08:37:20;2.17;;;0.98;;
70707;SDS011;58277;47.316;18.908;2023-01-10T08:39:43;2.45;;;0.80;;
70707;SDS011;58277;47.316;18.908;2023-01-10T08:42:06;2.20;;;0.80;;
70707;SDS011;58277;47.316;18.908;2023-01-10T08:44:29;2.17;;;0.70;;
70707;SDS011;58277;47.316;18.908;2023-01-10T08:46:52;2.60;;;0.90;;
70707;SDS011;58277;47.316;18.908;2023-01-10T08:51:59;2.20;;;1.10;;
70707;SDS011;58277;47.316;18.908;2023-01-10T08:54:43;1.70;;;0.80;;
70707;SDS011;58277;47.316;18.908;2023-01-10T08:57:06;2.53;;;0.80;;
70707;SDS011;58277;47.316;18.908;2023-01-10T08:59:29;4.03;;;0.90;;
70707;SDS011;58277;47.316;18.908;2023-01-10T09:01:53;1.00;;;0.40;;
70707;SDS011;58277;47.316;18.908;2023-01-10T09:04:16;2.22;;;0.90;;
70707;SDS011;58277;47.316;18.908;2023-01-10T09:06:38;1.97;;;0.90;;
70707;SDS011;58277;47.316;18.908;2023-01-10T09:09:01;1.60;;;0.80;;
70707;SDS011;58277;47.316;18.908;2023-01-10T09:11:24;3.17;;;1.00;;
70707;SDS011;58277;47.316;18.908;2023-01-10T09:13:48;1.63;;;0.80;;
70707;SDS011;58277;47.316;18.908;2023-01-10T09:16:11;2.33;;;1.00;;
70707;SDS011;58277;47.316;18.908;2023-01-10T09:18:34;2.07;;;0.90;;
70707;SDS011;58277;47.316;18.908;2023-01-10T09:20:57;2.13;;;0.80;;
70707;SDS011;58277;47.316;18.908;2023-01-10T09:23:20;2.95;;;1.20;;
70707;SDS011;58277;47.316;18.908;2023-01-10T09:25:45;3.25;;;0.90;;
70707;SDS011;58277;47.316;18.908;2023-01-10T09:28:09;2.58;;;1.00;;
70707;SDS011;58277;47.316;18.908;2023-01-10T09:30:31;1.90;;;0.80;;
70707;SDS011;58277;47.316;18.908;2023-01-10T09:32:55;1.77;;;0.75;;
70707;SDS011;58277;47.316;18.908;2023-01-10T09:35:18;1.60;;;0.80;;
70707;SDS011;58277;47.316;18.908;2023-01-10T09:37:41;1.38;;;0.80;;
70707;SDS011;58277;47.316;18.908;2023-01-10T09:40:04;2.08;;;0.80;;
70707;SDS011;58277;47.316;18.908;2023-01-10T09:45:52;1.92;;;0.60;;
70707;SDS011;58277;47.316;18.908;2023-01-10T09:48:44;2.35;;;1.10;;
70707;SDS011;58277;47.316;18.908;2023-01-10T09:53:42;1.77;;;0.77;;
70707;SDS011;58277;47.316;18.908;2023-01-10T09:56:07;2.07;;;1.00;;
70707;SDS011;58277;47.316;18.908;2023-01-10T09:58:31;1.60;;;0.95;;
70707;SDS011;58277;47.316;18.908;2023-01-10T10:00:57;1.70;;;0.70;;
70707;SDS011;58277;47.316;18.908;2023-01-10T10:06:11;2.20;;;0.85;;
70707;SDS011;58277;47.316;18.908;2023-01-10T10:08:35;2.60;;;1.10;;
70707;SDS011;58277;47.316;18.908;2023-01-10T10:13:47;1.95;;;0.70;;
70707;SDS011;58277;47.316;18.908;2023-01-10T10:25:17;1.83;;;1.13;;
70707;SDS011;58277;47.316;18.908;2023-01-10T10:30:53;1.70;;;0.88;;
70707;SDS011;58277;47.316;18.908;2023-01-10T10:36:26;2.13;;;0.93;;
70707;SDS011;58277;47.316;18.908;2023-01-10T10:39:03;2.10;;;1.00;;
70707;SDS011;58277;47.316;18.908;2023-01-10T10:41:33;1.90;;;0.90;;
70707;SDS011;58277;47.316;18.908;2023-01-10T10:43:58;1.65;;;0.70;;
70707;SDS011;58277;47.316;18.908;2023-01-10T10:46:26;2.40;;;1.00;;
70707;SDS011;58277;47.316;18.908;2023-01-10T10:48:58;2.83;;;0.90;;
70707;SDS011;58277;47.316;18.908;2023-01-10T10:51:26;2.63;;;1.10;;
70707;SDS011;58277;47.316;18.908;2023-01-10T10:54:00;1.52;;;0.80;;
70707;SDS011;58277;47.316;18.908;2023-01-10T10:56:23;2.03;;;0.90;;
70707;SDS011;58277;47.316;18.908;2023-01-10T10:58:51;2.30;;;1.20;;
70707;SDS011;58277;47.316;18.908;2023-01-10T11:01:16;1.30;;;0.80;;
70707;SDS011;58277;47.316;18.908;2023-01-10T11:03:41;2.60;;;1.23;;
70707;SDS011;58277;47.316;18.908;2023-01-10T11:06:09;1.80;;;0.98;;
70707;SDS011;58277;47.316;18.908;2023-01-10T11:08:34;2.85;;;1.55;;
70707;SDS011;58277;47.316;18.908;2023-01-10T11:11:02;1.92;;;1.00;;
70707;SDS011;58277;47.316;18.908;2023-01-10T11:16:28;1.77;;;1.00;;
70707;SDS011;58277;47.316;18.908;2023-01-10T11:21:59;1.50;;;0.80;;
70707;SDS011;58277;47.316;18.908;2023-01-10T11:24:32;1.40;;;0.85;;
70707;SDS011;58277;47.316;18.908;2023-01-10T11:27:01;2.37;;;0.80;;
70707;SDS011;58277;47.316;18.908;2023-01-10T11:29:30;1.83;;;0.80;;
70707;SDS011;58277;47.316;18.908;2023-01-10T11:32:02;1.90;;;0.90;;
70707;SDS011;58277;47.316;18.908;2023-01-10T11:34:32;4.22;;;1.45;;
70707;SDS011;58277;47.316;18.908;2023-01-10T11:37:01;2.38;;;1.17;;
70707;SDS011;58277;47.316;18.908;2023-01-10T11:39:26;2.03;;;0.80;;
70707;SDS011;58277;47.316;18.908;2023-01-10T11:41:50;2.20;;;0.95;;
70707;SDS011;58277;47.316;18.908;2023-01-10T11:44:22;4.32;;;1.02;;
70707;SDS011;58277;47.316;18.908;2023-01-10T11:46:53;1.90;;;0.90;;
70707;SDS011;58277;47.316;18.908;2023-01-10T11:49:25;1.70;;;0.80;;
70707;SDS011;58277;47.316;18.908;2023-01-10T11:51:52;1.33;;;0.67;;
70707;SDS011;58277;47.316;18.908;2023-01-10T11:54:20;2.88;;;1.00;;
70707;SDS011;58277;47.316;18.908;2023-01-10T11:59:52;3.13;;;1.30;;
70707;SDS011;58277;47.316;18.908;2023-01-10T12:04:50;2.10;;;0.70;;
70707;SDS011;58277;47.316;18.908;2023-01-10T12:07:14;2.53;;;0.90;;
70707;SDS011;58277;47.316;18.908;2023-01-10T12:09:44;2.35;;;1.20;;
70707;SDS011;58277;47.316;18.908;2023-01-10T12:12:21;2.00;;;0.80;;
70707;SDS011;58277;47.316;18.908;2023-01-10T12:14:49;3.05;;;1.30;;
70707;SDS011;58277;47.316;18.908;2023-01-10T12:17:20;2.67;;;1.10;;
70707;SDS011;58277;47.316;18.908;2023-01-10T12:19:43;1.83;;;0.70;;
70707;SDS011;58277;47.316;18.908;2023-01-10T12:22:06;1.83;;;0.82;;
70707;SDS011;58277;47.316;18.908;2023-01-10T12:24:35;2.75;;;1.00;;
70707;SDS011;58277;47.316;18.908;2023-01-10T12:27:03;1.83;;;1.00;;
70707;SDS011;58277;47.316;18.908;2023-01-10T12:29:30;1.77;;;0.90;;
70707;SDS011;58277;47.316;18.908;2023-01-10T12:32:14;2.42;;;1.20;;
70707;SDS011;58277;47.316;18.908;2023-01-10T12:34:43;1.52;;;1.00;;
70707;SDS011;58277;47.316;18.908;2023-01-10T12:39:40;3.00;;;1.45;;
70707;SDS011;58277;47.316;18.908;2023-01-10T12:42:21;3.07;;;1.27;;
70707;SDS011;58277;47.316;18.908;2023-01-10T12:45:18;2.55;;;1.00;;
70707;SDS011;58277;47.316;18.908;2023-01-10T12:47:53;2.22;;;1.00;;
70707;SDS011;58277;47.316;18.908;2023-01-10T12:50:28;2.03;;;1.23;;
70707;SDS011;58277;47.316;18.908;2023-01-10T12:55:48;1.97;;;0.97;;
70707;SDS011;58277;47.316;18.908;2023-01-10T13:01:11;4.28;;;1.23;;
70707;SDS011;58277;47.316;18.908;2023-01-10T13:03:37;3.10;;;1.00;;
70707;SDS011;58277;47.316;18.908;2023-01-10T13:06:01;2.10;;;1.05;;
70707;SDS011;58277;47.316;18.908;2023-01-10T13:08:28;1.93;;;1.13;;
70707;SDS011;58277;47.316;18.908;2023-01-10T13:10:59;3.30;;;1.30;;
70707;SDS011;58277;47.316;18.908;2023-01-10T13:15:59;2.67;;;1.40;;
70707;SDS011;58277;47.316;18.908;2023-01-10T13:18:46;2.90;;;1.10;;
70707;SDS011;58277;47.316;18.908;2023-01-10T13:21:23;2.83;;;1.10;;
70707;SDS011;58277;47.316;18.908;2023-01-10T13:23:47;4.15;;;1.60;;
70707;SDS011;58277;47.316;18.908;2023-01-10T13:26:11;2.10;;;1.30;;
70707;SDS011;58277;47.316;18.908;2023-01-10T13:28:56;2.83;;;1.48;;
70707;SDS011;58277;47.316;18.908;2023-01-10T13:31:29;2.80;;;1.35;;
70707;SDS011;58277;47.316;18.908;2023-01-10T13:34:00;3.57;;;2.20;;
70707;SDS011;58277;47.316;18.908;2023-01-10T13:36:29;2.33;;;1.13;;
70707;SDS011;58277;47.316;18.908;2023-01-10T13:38:59;2.00;;;1.10;;
70707;SDS011;58277;47.316;18.908;2023-01-10T13:41:25;2.22;;;1.23;;
70707;SDS011;58277;47.316;18.908;2023-01-10T13:50:01;4.82;;;1.42;;
70707;SDS011;58277;47.316;18.908;2023-01-10T13:55:26;2.65;;;1.55;;
70707;SDS011;58277;47.316;18.908;2023-01-10T13:58:01;2.92;;;1.58;;
70707;SDS011;58277;47.316;18.908;2023-01-10T14:01:02;2.93;;;1.10;;
70707;SDS011;58277;47.316;18.908;2023-01-10T14:08:47;3.60;;;1.50;;
70707;SDS011;58277;47.316;18.908;2023-01-10T14:11:13;3.20;;;1.70;;
70707;SDS011;58277;47.316;18.908;2023-01-10T14:13:35;2.97;;;1.47;;
70707;SDS011;58277;47.316;18.908;2023-01-10T14:15:58;3.80;;;1.67;;
70707;SDS011;58277;47.316;18.908;2023-01-10T14:18:22;3.20;;;1.40;;
70707;SDS011;58277;47.316;18.908;2023-01-10T14:20:58;3.63;;;1.70;;
70707;SDS011;58277;47.316;18.908;2023-01-10T14:23:25;3.83;;;1.95;;
70707;SDS011;58277;47.316;18.908;2023-01-10T14:25:56;3.57;;;1.93;;
70707;SDS011;58277;47.316;18.908;2023-01-10T14:28:27;3.63;;;2.13;;
70707;SDS011;58277;47.316;18.908;2023-01-10T14:31:00;4.70;;;2.03;;
70707;SDS011;58277;47.316;18.908;2023-01-10T14:33:25;3.75;;;1.95;;
70707;SDS011;58277;47.316;18.908;2023-01-10T14:35:50;5.53;;;2.03;;
70707;SDS011;58277;47.316;18.908;2023-01-10T14:38:17;3.50;;;1.60;;
70707;SDS011;58277;47.316;18.908;2023-01-10T14:40:46;4.13;;;2.17;;
70707;SDS011;58277;47.316;18.908;2023-01-10T14:43:13;4.78;;;2.10;;
70707;SDS011;58277;47.316;18.908;2023-01-10T14:45:39;4.10;;;1.90;;
70707;SDS011;58277;47.316;18.908;2023-01-10T14:48:51;5.03;;;2.00;;
70707;SDS011;58277;47.316;18.908;2023-01-10T14:50:50;2.90;;;1.67;;
70707;SDS011;58277;47.316;18.908;2023-01-10T14:53:26;3.83;;;1.85;;
70707;SDS011;58277;47.316;18.908;2023-01-10T14:55:51;4.50;;;2.17;;
70707;SDS011;58277;47.316;18.908;2023-01-10T14:58:15;4.57;;;2.40;;
70707;SDS011;58277;47.316;18.908;2023-01-10T15:00:39;5.40;;;2.50;;
70707;SDS011;58277;47.316;18.908;2023-01-10T15:03:14;5.23;;;2.30;;
70707;SDS011;58277;47.316;18.908;2023-01-10T15:05:45;4.53;;;2.20;;
70707;SDS011;58277;47.316;18.908;2023-01-10T15:08:20;6.53;;;2.75;;
70707;SDS011;58277;47.316;18.908;2023-01-10T15:10:47;4.68;;;2.40;;
70707;SDS011;58277;47.316;18.908;2023-01-10T15:13:13;4.03;;;2.20;;
70707;SDS011;58277;47.316;18.908;2023-01-10T15:15:38;6.20;;;2.87;;
70707;SDS011;58277;47.316;18.908;2023-01-10T15:18:05;4.97;;;2.40;;
70707;SDS011;58277;47.316;18.908;2023-01-10T15:20:48;5.80;;;2.47;;
70707;SDS011;58277;47.316;18.908;2023-01-10T15:23:12;4.90;;;2.40;;
70707;SDS011;58277;47.316;18.908;2023-01-10T15:25:36;5.25;;;2.25;;
70707;SDS011;58277;47.316;18.908;2023-01-10T15:28:00;5.60;;;2.10;;
70707;SDS011;58277;47.316;18.908;2023-01-10T15:30:25;5.00;;;2.25;;
70707;SDS011;58277;47.316;18.908;2023-01-10T15:32:50;5.82;;;2.15;;
70707;SDS011;58277;47.316;18.908;2023-01-10T15:35:15;3.90;;;2.08;;
70707;SDS011;58277;47.316;18.908;2023-01-10T15:37:48;4.93;;;2.00;;
70707;SDS011;58277;47.316;18.908;2023-01-10T15:40:20;4.67;;;2.00;;
70707;SDS011;58277;47.316;18.908;2023-01-10T15:42:45;3.65;;;1.80;;
70707;SDS011;58277;47.316;18.908;2023-01-10T15:45:21;4.35;;;2.30;;
70707;SDS011;58277;47.316;18.908;2023-01-10T15:47:58;3.63;;;1.85;;
70707;SDS011;58277;47.316;18.908;2023-01-10T15:50:26;5.20;;;2.00;;
70707;SDS011;58277;47.316;18.908;2023-01-10T15:52:51;4.30;;;1.80;;
70707;SDS011;58277;47.316;18.908;2023-01-10T15:55:19;4.40;;;1.77;;
70707;SDS011;58277;47.316;18.908;2023-01-10T16:00:57;4.50;;;2.20;;
70707;SDS011;58277;47.316;18.908;2023-01-10T16:03:37;4.40;;;2.35;;
70707;SDS011;58277;47.316;18.908;2023-01-10T16:06:25;4.10;;;2.20;;
70707;SDS011;58277;47.316;18.908;2023-01-10T16:08:55;3.65;;;1.90;;
70707;SDS011;58277;47.316;18.908;2023-01-10T16:14:14;4.55;;;1.98;;
70707;SDS011;58277;47.316;18.908;2023-01-10T16:16:36;3.92;;;1.95;;
70707;SDS011;58277;47.316;18.908;2023-01-10T16:19:00;4.63;;;2.20;;
70707;SDS011;58277;47.316;18.908;2023-01-10T16:21:28;4.10;;;2.03;;
70707;SDS011;58277;47.316;18.908;2023-01-10T16:23:56;3.63;;;2.03;;
70707;SDS011;58277;47.316;18.908;2023-01-10T16:26:18;3.95;;;2.10;;
70707;SDS011;58277;47.316;18.908;2023-01-10T16:28:41;2.42;;;1.80;;